sensor_id;sensor_type;location;lat;lon;timestamp;temperature;humidity
9845;DHT22;4961;50.782;6.080;2022-09-13T00:01:18;19.80;99.90
9845;DHT22;4961;50.782;6.080;2022-09-13T00:03:46;19.80;99.90
9845;DHT22;4961;50.782;6.080;2022-09-13T00:06:17;19.90;99.90
9845;DHT22;4961;50.782;6.080;2022-09-13T00:08:46;20.00;99.90
9845;DHT22;4961;50.782;6.080;2022-09-13T00:11:16;20.10;99.90
9845;DHT22;4961;50.782;6.080;2022-09-13T00:13:45;20.10;99.90
9845;DHT22;4961;50.782;6.080;2022-09-13T00:16:17;20.20;99.90
9845;DHT22;4961;50.782;6.080;2022-09-13T00:18:46;20.20;99.90
9845;DHT22;4961;50.782;6.080;2022-09-13T00:21:16;20.30;99.90
9845;DHT22;4961;50.782;6.080;2022-09-13T00:23:46;20.30;99.90
9845;DHT22;4961;50.782;6.080;2022-09-13T00:26:17;20.30;99.90
9845;DHT22;4961;50.782;6.080;2022-09-13T00:28:48;20.30;99.90
9845;DHT22;4961;50.782;6.080;2022-09-13T00:31:20;20.30;99.90
9845;DHT22;4961;50.782;6.080;2022-09-13T00:33:50;20.20;99.90
9845;DHT22;4961;50.782;6.080;2022-09-13T00:36:18;20.30;99.90
9845;DHT22;4961;50.782;6.080;2022-09-13T00:38:46;20.20;99.90
9845;DHT22;4961;50.782;6.080;2022-09-13T00:41:17;20.30;99.90
9845;DHT22;4961;50.782;6.080;2022-09-13T00:43:48;20.30;99.90
9845;DHT22;4961;50.782;6.080;2022-09-13T00:46:23;20.30;99.90
9845;DHT22;4961;50.782;6.080;2022-09-13T00:48:56;20.30;99.90
9845;DHT22;4961;50.782;6.080;2022-09-13T00:51:27;20.20;99.90
9845;DHT22;4961;50.782;6.080;2022-09-13T00:53:56;20.20;99.90
9845;DHT22;4961;50.782;6.080;2022-09-13T00:56:29;20.20;99.90
9845;DHT22;4961;50.782;6.080;2022-09-13T00:59:01;20.10;99.90
9845;DHT22;4961;50.782;6.080;2022-09-13T01:01:36;20.10;99.90
9845;DHT22;4961;50.782;6.080;2022-09-13T01:04:07;20.10;99.90
9845;DHT22;4961;50.782;6.080;2022-09-13T01:06:38;20.10;99.90
9845;DHT22;4961;50.782;6.080;2022-09-13T01:09:10;20.10;99.90
9845;DHT22;4961;50.782;6.080;2022-09-13T01:11:43;20.00;99.90
9845;DHT22;4961;50.782;6.080;2022-09-13T01:14:13;20.00;99.90
9845;DHT22;4961;50.782;6.080;2022-09-13T01:16:44;19.90;99.90
9845;DHT22;4961;50.782;6.080;2022-09-13T01:19:14;19.90;99.90
9845;DHT22;4961;50.782;6.080;2022-09-13T01:24:56;19.80;99.90
9845;DHT22;4961;50.782;6.080;2022-09-13T01:27:36;19.80;99.90
9845;DHT22;4961;50.782;6.080;2022-09-13T01:30:11;19.80;99.90
9845;DHT22;4961;50.782;6.080;2022-09-13T01:32:59;19.80;99.90
9845;DHT22;4961;50.782;6.080;2022-09-13T01:35:39;19.80;99.90
9845;DHT22;4961;50.782;6.080;2022-09-13T01:38:18;19.70;99.90
9845;DHT22;4961;50.782;6.080;2022-09-13T01:40:59;19.80;99.90
9845;DHT22;4961;50.782;6.080;2022-09-13T01:43:41;19.80;99.90
9845;DHT22;4961;50.782;6.080;2022-09-13T01:46:17;19.80;99.90
9845;DHT22;4961;50.782;6.080;2022-09-13T01:48:54;19.80;99.90
9845;DHT22;4961;50.782;6.080;2022-09-13T01:51:28;19.80;99.90
9845;DHT22;4961;50.782;6.080;2022-09-13T01:54:13;19.80;99.90
9845;DHT22;4961;50.782;6.080;2022-09-13T01:56:50;19.80;99.90
9845;DHT22;4961;50.782;6.080;2022-09-13T01:59:28;19.80;99.90
9845;DHT22;4961;50.782;6.080;2022-09-13T02:02:04;19.80;99.90
9845;DHT22;4961;50.782;6.080;2022-09-13T02:04:36;19.80;99.90
9845;DHT22;4961;50.782;6.080;2022-09-13T02:07:09;19.80;99.90
9845;DHT22;4961;50.782;6.080;2022-09-13T02:09:43;19.80;99.90
9845;DHT22;4961;50.782;6.080;2022-09-13T02:12:15;19.80;99.90
9845;DHT22;4961;50.782;6.080;2022-09-13T02:14:47;19.80;99.90
9845;DHT22;4961;50.782;6.080;2022-09-13T02:17:21;19.70;99.90
9845;DHT22;4961;50.782;6.080;2022-09-13T02:19:53;19.70;99.90
9845;DHT22;4961;50.782;6.080;2022-09-13T02:22:25;19.70;99.90
9845;DHT22;4961;50.782;6.080;2022-09-13T02:24:57;19.60;99.90
9845;DHT22;4961;50.782;6.080;2022-09-13T02:27:31;19.60;99.90
9845;DHT22;4961;50.782;6.080;2022-09-13T02:30:03;19.60;99.90
9845;DHT22;4961;50.782;6.080;2022-09-13T02:32:37;19.60;99.90
9845;DHT22;4961;50.782;6.080;2022-09-13T02:35:11;19.60;99.90
9845;DHT22;4961;50.782;6.080;2022-09-13T02:37:41;19.70;99.90
9845;DHT22;4961;50.782;6.080;2022-09-13T02:40:14;19.70;99.90
9845;DHT22;4961;50.782;6.080;2022-09-13T02:42:46;19.70;99.90
9845;DHT22;4961;50.782;6.080;2022-09-13T02:45:17;19.80;99.90
9845;DHT22;4961;50.782;6.080;2022-09-13T02:47:55;19.80;99.90
9845;DHT22;4961;50.782;6.080;2022-09-13T02:50:38;19.90;99.90
9845;DHT22;4961;50.782;6.080;2022-09-13T02:53:15;19.90;99.90
9845;DHT22;4961;50.782;6.080;2022-09-13T02:55:52;20.00;99.90
9845;DHT22;4961;50.782;6.080;2022-09-13T02:58:27;20.00;99.90
9845;DHT22;4961;50.782;6.080;2022-09-13T03:00:57;20.10;99.90
9845;DHT22;4961;50.782;6.080;2022-09-13T03:03:27;20.10;99.90
9845;DHT22;4961;50.782;6.080;2022-09-13T03:05:56;20.10;99.90
9845;DHT22;4961;50.782;6.080;2022-09-13T03:08:24;20.10;99.90
9845;DHT22;4961;50.782;6.080;2022-09-13T03:11:01;20.10;99.90
9845;DHT22;4961;50.782;6.080;2022-09-13T03:13:51;20.10;99.90
9845;DHT22;4961;50.782;6.080;2022-09-13T03:16:40;20.00;99.90
9845;DHT22;4961;50.782;6.080;2022-09-13T03:19:31;20.00;99.90
9845;DHT22;4961;50.782;6.080;2022-09-13T03:22:24;19.90;99.90
9845;DHT22;4961;50.782;6.080;2022-09-13T03:25:04;19.90;99.90
9845;DHT22;4961;50.782;6.080;2022-09-13T03:27:36;19.80;99.90
9845;DHT22;4961;50.782;6.080;2022-09-13T03:30:10;19.80;99.90
9845;DHT22;4961;50.782;6.080;2022-09-13T03:32:43;19.70;99.90
9845;DHT22;4961;50.782;6.080;2022-09-13T03:35:20;19.80;99.90
9845;DHT22;4961;50.782;6.080;2022-09-13T03:37:56;19.80;99.90
9845;DHT22;4961;50.782;6.080;2022-09-13T03:40:34;19.80;99.90
9845;DHT22;4961;50.782;6.080;2022-09-13T03:43:07;19.80;99.90
9845;DHT22;4961;50.782;6.080;2022-09-13T03:45:42;19.80;99.90
9845;DHT22;4961;50.782;6.080;2022-09-13T03:48:12;19.80;99.90
9845;DHT22;4961;50.782;6.080;2022-09-13T03:50:44;19.80;99.90
9845;DHT22;4961;50.782;6.080;2022-09-13T03:53:16;19.80;99.90
9845;DHT22;4961;50.782;6.080;2022-09-13T03:55:45;19.80;99.90
9845;DHT22;4961;50.782;6.080;2022-09-13T03:58:15;19.70;99.90
9845;DHT22;4961;50.782;6.080;2022-09-13T04:00:44;19.70;99.90
9845;DHT22;4961;50.782;6.080;2022-09-13T04:03:13;19.70;99.90
9845;DHT22;4961;50.782;6.080;2022-09-13T04:05:42;19.70;99.90
9845;DHT22;4961;50.782;6.080;2022-09-13T04:08:10;19.70;99.90
9845;DHT22;4961;50.782;6.080;2022-09-13T04:10:38;19.70;99.90
9845;DHT22;4961;50.782;6.080;2022-09-13T04:13:07;19.80;99.90
9845;DHT22;4961;50.782;6.080;2022-09-13T04:15:35;19.80;99.90
9845;DHT22;4961;50.782;6.080;2022-09-13T04:18:04;19.80;99.90
9845;DHT22;4961;50.782;6.080;2022-09-13T04:20:32;19.80;99.90
9845;DHT22;4961;50.782;6.080;2022-09-13T04:23:02;19.80;99.90
9845;DHT22;4961;50.782;6.080;2022-09-13T04:25:31;19.80;99.90
9845;DHT22;4961;50.782;6.080;2022-09-13T04:27:59;19.90;99.90
9845;DHT22;4961;50.782;6.080;2022-09-13T04:30:28;19.80;99.90
9845;DHT22;4961;50.782;6.080;2022-09-13T04:32:56;19.80;99.90
9845;DHT22;4961;50.782;6.080;2022-09-13T04:35:25;19.80;99.90
9845;DHT22;4961;50.782;6.080;2022-09-13T04:37:54;19.80;99.90
9845;DHT22;4961;50.782;6.080;2022-09-13T04:40:25;19.80;99.90
9845;DHT22;4961;50.782;6.080;2022-09-13T04:42:53;19.90;99.90
9845;DHT22;4961;50.782;6.080;2022-09-13T04:45:22;19.90;99.90
9845;DHT22;4961;50.782;6.080;2022-09-13T04:47:51;19.90;99.90
9845;DHT22;4961;50.782;6.080;2022-09-13T04:50:20;20.00;99.90
9845;DHT22;4961;50.782;6.080;2022-09-13T04:52:48;20.10;99.90
9845;DHT22;4961;50.782;6.080;2022-09-13T04:55:17;20.20;99.90
9845;DHT22;4961;50.782;6.080;2022-09-13T04:57:46;20.30;99.90
9845;DHT22;4961;50.782;6.080;2022-09-13T05:00:14;20.30;99.90
9845;DHT22;4961;50.782;6.080;2022-09-13T05:02:42;20.30;99.90
9845;DHT22;4961;50.782;6.080;2022-09-13T05:05:11;20.40;99.90
9845;DHT22;4961;50.782;6.080;2022-09-13T05:07:39;20.40;99.90
9845;DHT22;4961;50.782;6.080;2022-09-13T05:10:08;20.40;99.90
9845;DHT22;4961;50.782;6.080;2022-09-13T05:12:36;20.40;99.90
9845;DHT22;4961;50.782;6.080;2022-09-13T05:15:07;20.50;99.90
9845;DHT22;4961;50.782;6.080;2022-09-13T05:17:36;20.50;99.90
9845;DHT22;4961;50.782;6.080;2022-09-13T05:20:05;20.50;99.90
9845;DHT22;4961;50.782;6.080;2022-09-13T05:22:33;20.40;99.90
9845;DHT22;4961;50.782;6.080;2022-09-13T05:25:01;20.50;99.90
9845;DHT22;4961;50.782;6.080;2022-09-13T05:27:31;20.40;99.90
9845;DHT22;4961;50.782;6.080;2022-09-13T05:29:59;20.40;99.90
9845;DHT22;4961;50.782;6.080;2022-09-13T05:32:29;20.50;99.90
9845;DHT22;4961;50.782;6.080;2022-09-13T05:34:58;20.50;99.90
9845;DHT22;4961;50.782;6.080;2022-09-13T05:37:26;20.40;99.90
9845;DHT22;4961;50.782;6.080;2022-09-13T05:39:54;20.40;99.90
9845;DHT22;4961;50.782;6.080;2022-09-13T05:42:40;20.50;99.90
9845;DHT22;4961;50.782;6.080;2022-09-13T05:45:08;20.50;99.90
9845;DHT22;4961;50.782;6.080;2022-09-13T05:47:38;20.40;99.90
9845;DHT22;4961;50.782;6.080;2022-09-13T05:50:07;20.40;99.90
9845;DHT22;4961;50.782;6.080;2022-09-13T05:52:51;20.50;99.90
9845;DHT22;4961;50.782;6.080;2022-09-13T05:55:20;20.50;99.90
9845;DHT22;4961;50.782;6.080;2022-09-13T05:57:53;20.50;99.90
9845;DHT22;4961;50.782;6.080;2022-09-13T06:00:21;20.50;99.90
9845;DHT22;4961;50.782;6.080;2022-09-13T06:02:50;20.50;99.90
9845;DHT22;4961;50.782;6.080;2022-09-13T06:05:19;20.50;99.90
9845;DHT22;4961;50.782;6.080;2022-09-13T06:07:47;20.50;99.90
9845;DHT22;4961;50.782;6.080;2022-09-13T06:10:15;20.50;99.90
9845;DHT22;4961;50.782;6.080;2022-09-13T06:12:44;20.40;99.90
9845;DHT22;4961;50.782;6.080;2022-09-13T06:15:12;20.40;99.90
9845;DHT22;4961;50.782;6.080;2022-09-13T06:17:41;20.40;99.90
9845;DHT22;4961;50.782;6.080;2022-09-13T06:20:10;20.40;99.90
9845;DHT22;4961;50.782;6.080;2022-09-13T06:22:39;20.40;99.90
9845;DHT22;4961;50.782;6.080;2022-09-13T06:25:07;20.40;99.90
9845;DHT22;4961;50.782;6.080;2022-09-13T06:27:36;20.40;99.90
9845;DHT22;4961;50.782;6.080;2022-09-13T06:30:06;20.30;99.90
9845;DHT22;4961;50.782;6.080;2022-09-13T06:32:35;20.30;99.90
9845;DHT22;4961;50.782;6.080;2022-09-13T06:35:07;20.40;99.90
9845;DHT22;4961;50.782;6.080;2022-09-13T06:37:37;20.40;99.90
9845;DHT22;4961;50.782;6.080;2022-09-13T06:40:06;20.40;99.90
9845;DHT22;4961;50.782;6.080;2022-09-13T06:42:35;20.40;99.90
9845;DHT22;4961;50.782;6.080;2022-09-13T06:45:05;20.40;99.90
9845;DHT22;4961;50.782;6.080;2022-09-13T06:47:33;20.40;99.90
9845;DHT22;4961;50.782;6.080;2022-09-13T06:50:02;20.50;99.90
9845;DHT22;4961;50.782;6.080;2022-09-13T06:52:31;20.50;99.90
9845;DHT22;4961;50.782;6.080;2022-09-13T06:55:00;20.50;99.90
9845;DHT22;4961;50.782;6.080;2022-09-13T06:57:29;20.60;99.90
9845;DHT22;4961;50.782;6.080;2022-09-13T06:59:57;20.60;99.90
9845;DHT22;4961;50.782;6.080;2022-09-13T07:02:26;20.60;99.90
9845;DHT22;4961;50.782;6.080;2022-09-13T07:04:54;20.60;99.90
9845;DHT22;4961;50.782;6.080;2022-09-13T07:07:22;20.60;99.90
9845;DHT22;4961;50.782;6.080;2022-09-13T07:09:51;20.60;99.90
9845;DHT22;4961;50.782;6.080;2022-09-13T07:12:20;20.60;99.90
9845;DHT22;4961;50.782;6.080;2022-09-13T07:14:49;20.60;99.90
9845;DHT22;4961;50.782;6.080;2022-09-13T07:17:17;20.60;99.90
9845;DHT22;4961;50.782;6.080;2022-09-13T07:19:45;20.70;99.90
9845;DHT22;4961;50.782;6.080;2022-09-13T07:22:14;20.80;99.90
9845;DHT22;4961;50.782;6.080;2022-09-13T07:24:43;20.80;99.90
9845;DHT22;4961;50.782;6.080;2022-09-13T07:27:12;20.80;99.90
9845;DHT22;4961;50.782;6.080;2022-09-13T07:29:43;20.80;99.90
9845;DHT22;4961;50.782;6.080;2022-09-13T07:32:12;20.90;99.90
9845;DHT22;4961;50.782;6.080;2022-09-13T07:34:40;20.80;99.90
9845;DHT22;4961;50.782;6.080;2022-09-13T07:37:09;20.90;99.90
9845;DHT22;4961;50.782;6.080;2022-09-13T07:39:37;20.90;99.90
9845;DHT22;4961;50.782;6.080;2022-09-13T07:42:05;20.90;99.90
9845;DHT22;4961;50.782;6.080;2022-09-13T07:44:34;20.90;99.90
9845;DHT22;4961;50.782;6.080;2022-09-13T07:47:04;20.90;99.90
9845;DHT22;4961;50.782;6.080;2022-09-13T07:49:32;21.00;99.90
9845;DHT22;4961;50.782;6.080;2022-09-13T07:52:00;21.00;99.90
9845;DHT22;4961;50.782;6.080;2022-09-13T07:54:29;21.00;99.90
9845;DHT22;4961;50.782;6.080;2022-09-13T07:56:57;21.10;99.90
9845;DHT22;4961;50.782;6.080;2022-09-13T07:59:25;21.10;99.90
9845;DHT22;4961;50.782;6.080;2022-09-13T08:01:56;21.10;99.90
9845;DHT22;4961;50.782;6.080;2022-09-13T08:04:25;21.20;99.90
9845;DHT22;4961;50.782;6.080;2022-09-13T08:06:54;21.20;99.90
9845;DHT22;4961;50.782;6.080;2022-09-13T08:09:22;21.30;99.90
9845;DHT22;4961;50.782;6.080;2022-09-13T08:11:51;21.40;99.90
9845;DHT22;4961;50.782;6.080;2022-09-13T08:14:21;21.40;99.90
9845;DHT22;4961;50.782;6.080;2022-09-13T08:16:50;21.40;99.90
9845;DHT22;4961;50.782;6.080;2022-09-13T08:19:21;21.40;99.90
9845;DHT22;4961;50.782;6.080;2022-09-13T08:21:51;21.40;99.90
9845;DHT22;4961;50.782;6.080;2022-09-13T08:24:21;21.40;99.90
9845;DHT22;4961;50.782;6.080;2022-09-13T08:26:49;21.50;99.90
9845;DHT22;4961;50.782;6.080;2022-09-13T08:29:18;21.50;99.90
9845;DHT22;4961;50.782;6.080;2022-09-13T08:31:46;21.60;99.90
9845;DHT22;4961;50.782;6.080;2022-09-13T08:34:15;21.60;99.90
9845;DHT22;4961;50.782;6.080;2022-09-13T08:36:45;21.70;99.90
9845;DHT22;4961;50.782;6.080;2022-09-13T08:39:15;21.80;99.90
9845;DHT22;4961;50.782;6.080;2022-09-13T08:44:46;21.90;99.90
9845;DHT22;4961;50.782;6.080;2022-09-13T08:47:27;22.00;99.90
9845;DHT22;4961;50.782;6.080;2022-09-13T08:50:03;22.00;99.90
9845;DHT22;4961;50.782;6.080;2022-09-13T08:52:37;22.20;99.90
9845;DHT22;4961;50.782;6.080;2022-09-13T08:55:20;22.40;99.90
9845;DHT22;4961;50.782;6.080;2022-09-13T08:57:54;22.40;99.90
9845;DHT22;4961;50.782;6.080;2022-09-13T09:00:30;22.50;99.90
9845;DHT22;4961;50.782;6.080;2022-09-13T09:03:13;22.60;99.90
9845;DHT22;4961;50.782;6.080;2022-09-13T09:05:45;22.90;99.90
9845;DHT22;4961;50.782;6.080;2022-09-13T09:08:28;23.40;99.90
9845;DHT22;4961;50.782;6.080;2022-09-13T09:11:06;23.80;99.90
9845;DHT22;4961;50.782;6.080;2022-09-13T09:13:40;24.10;99.90
9845;DHT22;4961;50.782;6.080;2022-09-13T09:16:22;24.40;99.90
9845;DHT22;4961;50.782;6.080;2022-09-13T09:18:54;24.50;99.90
9845;DHT22;4961;50.782;6.080;2022-09-13T09:21:24;24.70;99.90
9845;DHT22;4961;50.782;6.080;2022-09-13T09:23:53;24.80;99.90
9845;DHT22;4961;50.782;6.080;2022-09-13T09:26:25;25.00;99.90
9845;DHT22;4961;50.782;6.080;2022-09-13T09:28:58;25.30;99.90
9845;DHT22;4961;50.782;6.080;2022-09-13T09:31:33;25.50;99.90
9845;DHT22;4961;50.782;6.080;2022-09-13T09:34:12;25.50;99.90
9845;DHT22;4961;50.782;6.080;2022-09-13T09:36:52;25.50;99.90
9845;DHT22;4961;50.782;6.080;2022-09-13T09:39:28;25.40;99.90
9845;DHT22;4961;50.782;6.080;2022-09-13T09:42:00;25.20;99.90
9845;DHT22;4961;50.782;6.080;2022-09-13T09:44:31;25.20;99.90
9845;DHT22;4961;50.782;6.080;2022-09-13T09:47:03;25.20;99.90
9845;DHT22;4961;50.782;6.080;2022-09-13T09:49:38;25.20;99.90
9845;DHT22;4961;50.782;6.080;2022-09-13T09:52:28;25.20;99.90
9845;DHT22;4961;50.782;6.080;2022-09-13T09:55:06;24.90;99.90
9845;DHT22;4961;50.782;6.080;2022-09-13T09:57:52;24.80;99.90
9845;DHT22;4961;50.782;6.080;2022-09-13T10:00:23;24.60;99.90
9845;DHT22;4961;50.782;6.080;2022-09-13T10:02:54;24.50;99.90
9845;DHT22;4961;50.782;6.080;2022-09-13T10:05:24;24.40;99.90
9845;DHT22;4961;50.782;6.080;2022-09-13T10:07:56;24.40;99.90
9845;DHT22;4961;50.782;6.080;2022-09-13T10:10:31;24.40;99.90
9845;DHT22;4961;50.782;6.080;2022-09-13T10:13:11;24.30;99.90
9845;DHT22;4961;50.782;6.080;2022-09-13T10:15:55;24.30;99.90
9845;DHT22;4961;50.782;6.080;2022-09-13T10:18:24;24.20;99.90
9845;DHT22;4961;50.782;6.080;2022-09-13T10:21:22;24.10;99.90
9845;DHT22;4961;50.782;6.080;2022-09-13T10:23:51;24.10;99.90
9845;DHT22;4961;50.782;6.080;2022-09-13T10:26:25;24.30;99.90
9845;DHT22;4961;50.782;6.080;2022-09-13T10:29:04;24.50;99.90
9845;DHT22;4961;50.782;6.080;2022-09-13T10:31:35;24.70;99.90
9845;DHT22;4961;50.782;6.080;2022-09-13T10:34:11;24.90;99.90
9845;DHT22;4961;50.782;6.080;2022-09-13T10:36:47;24.80;99.90
9845;DHT22;4961;50.782;6.080;2022-09-13T10:39:21;24.80;99.90
9845;DHT22;4961;50.782;6.080;2022-09-13T10:41:51;24.80;99.90
9845;DHT22;4961;50.782;6.080;2022-09-13T10:44:29;24.80;99.90
9845;DHT22;4961;50.782;6.080;2022-09-13T10:47:02;24.70;99.90
9845;DHT22;4961;50.782;6.080;2022-09-13T10:49:36;24.70;99.90
9845;DHT22;4961;50.782;6.080;2022-09-13T10:52:23;24.70;99.90
9845;DHT22;4961;50.782;6.080;2022-09-13T10:54:51;24.70;99.90
9845;DHT22;4961;50.782;6.080;2022-09-13T10:57:36;24.50;99.90
9845;DHT22;4961;50.782;6.080;2022-09-13T11:00:17;24.60;99.90
9845;DHT22;4961;50.782;6.080;2022-09-13T11:03:13;24.70;99.90
9845;DHT22;4961;50.782;6.080;2022-09-13T11:05:51;25.00;99.90
9845;DHT22;4961;50.782;6.080;2022-09-13T11:08:33;25.20;99.90
9845;DHT22;4961;50.782;6.080;2022-09-13T11:11:10;25.30;99.90
9845;DHT22;4961;50.782;6.080;2022-09-13T11:13:52;25.30;99.90
9845;DHT22;4961;50.782;6.080;2022-09-13T11:16:37;25.50;99.90
9845;DHT22;4961;50.782;6.080;2022-09-13T11:19:37;25.60;99.90
9845;DHT22;4961;50.782;6.080;2022-09-13T11:22:22;25.80;99.90
9845;DHT22;4961;50.782;6.080;2022-09-13T11:25:08;25.80;99.90
9845;DHT22;4961;50.782;6.080;2022-09-13T11:27:49;25.70;99.90
9845;DHT22;4961;50.782;6.080;2022-09-13T11:30:22;25.60;99.90
9845;DHT22;4961;50.782;6.080;2022-09-13T11:33:18;25.50;99.90
9845;DHT22;4961;50.782;6.080;2022-09-13T11:36:03;25.40;99.90
9845;DHT22;4961;50.782;6.080;2022-09-13T11:38:48;25.30;99.90
9845;DHT22;4961;50.782;6.080;2022-09-13T11:41:26;25.20;99.90
9845;DHT22;4961;50.782;6.080;2022-09-13T11:44:16;25.00;99.90
9845;DHT22;4961;50.782;6.080;2022-09-13T11:46:53;24.90;99.90
9845;DHT22;4961;50.782;6.080;2022-09-13T11:49:55;24.80;99.90
9845;DHT22;4961;50.782;6.080;2022-09-13T11:52:33;24.70;99.90
9845;DHT22;4961;50.782;6.080;2022-09-13T11:55:13;24.70;99.90
9845;DHT22;4961;50.782;6.080;2022-09-13T11:57:44;24.70;99.90
9845;DHT22;4961;50.782;6.080;2022-09-13T12:00:19;24.60;99.90
9845;DHT22;4961;50.782;6.080;2022-09-13T12:02:55;24.50;99.90
9845;DHT22;4961;50.782;6.080;2022-09-13T12:05:29;24.50;99.90
9845;DHT22;4961;50.782;6.080;2022-09-13T12:08:02;24.50;99.90
9845;DHT22;4961;50.782;6.080;2022-09-13T12:10:37;24.70;99.90
9845;DHT22;4961;50.782;6.080;2022-09-13T12:13:11;24.80;99.90
9845;DHT22;4961;50.782;6.080;2022-09-13T12:15:43;24.90;99.90
9845;DHT22;4961;50.782;6.080;2022-09-13T12:18:16;24.90;99.90
9845;DHT22;4961;50.782;6.080;2022-09-13T12:20:50;24.90;99.90
9845;DHT22;4961;50.782;6.080;2022-09-13T12:23:23;24.90;99.90
9845;DHT22;4961;50.782;6.080;2022-09-13T12:25:57;24.90;99.90
9845;DHT22;4961;50.782;6.080;2022-09-13T12:28:30;24.80;99.90
9845;DHT22;4961;50.782;6.080;2022-09-13T12:31:06;24.80;99.90
9845;DHT22;4961;50.782;6.080;2022-09-13T12:33:39;24.90;99.90
9845;DHT22;4961;50.782;6.080;2022-09-13T12:36:32;24.90;99.90
9845;DHT22;4961;50.782;6.080;2022-09-13T12:39:25;25.20;99.90
9845;DHT22;4961;50.782;6.080;2022-09-13T12:42:17;25.50;99.90
9845;DHT22;4961;50.782;6.080;2022-09-13T12:45:01;25.70;99.90
9845;DHT22;4961;50.782;6.080;2022-09-13T12:47:58;25.80;99.90
9845;DHT22;4961;50.782;6.080;2022-09-13T12:50:50;25.60;99.90
9845;DHT22;4961;50.782;6.080;2022-09-13T12:56:28;25.40;99.90
9845;DHT22;4961;50.782;6.080;2022-09-13T12:59:17;25.30;99.90
9845;DHT22;4961;50.782;6.080;2022-09-13T13:01:48;25.30;99.90
9845;DHT22;4961;50.782;6.080;2022-09-13T13:04:20;25.30;99.90
9845;DHT22;4961;50.782;6.080;2022-09-13T13:06:51;25.40;99.90
9845;DHT22;4961;50.782;6.080;2022-09-13T13:09:27;25.50;99.90
9845;DHT22;4961;50.782;6.080;2022-09-13T13:11:58;25.50;99.90
9845;DHT22;4961;50.782;6.080;2022-09-13T13:14:29;25.50;99.90
9845;DHT22;4961;50.782;6.080;2022-09-13T13:17:35;25.40;99.90
9845;DHT22;4961;50.782;6.080;2022-09-13T13:23:24;25.10;99.90
9845;DHT22;4961;50.782;6.080;2022-09-13T13:26:07;25.00;99.90
9845;DHT22;4961;50.782;6.080;2022-09-13T13:28:50;25.10;99.90
9845;DHT22;4961;50.782;6.080;2022-09-13T13:31:40;25.10;99.90
9845;DHT22;4961;50.782;6.080;2022-09-13T13:34:31;25.00;99.90
9845;DHT22;4961;50.782;6.080;2022-09-13T13:37:03;25.00;99.90
9845;DHT22;4961;50.782;6.080;2022-09-13T13:39:41;24.90;99.90
9845;DHT22;4961;50.782;6.080;2022-09-13T13:42:22;24.90;99.90
9845;DHT22;4961;50.782;6.080;2022-09-13T13:45:16;24.90;99.90
9845;DHT22;4961;50.782;6.080;2022-09-13T13:48:07;24.90;99.90
9845;DHT22;4961;50.782;6.080;2022-09-13T13:53:39;24.80;99.90
9845;DHT22;4961;50.782;6.080;2022-09-13T13:56:21;24.80;99.90
9845;DHT22;4961;50.782;6.080;2022-09-13T13:58:55;24.60;99.90
9845;DHT22;4961;50.782;6.080;2022-09-13T14:01:27;24.60;99.90
9845;DHT22;4961;50.782;6.080;2022-09-13T14:07:27;24.50;99.90
9845;DHT22;4961;50.782;6.080;2022-09-13T14:10:02;24.50;99.90
9845;DHT22;4961;50.782;6.080;2022-09-13T14:12:47;24.60;99.90
9845;DHT22;4961;50.782;6.080;2022-09-13T14:15:36;24.50;99.90
9845;DHT22;4961;50.782;6.080;2022-09-13T14:18:36;24.40;99.90
9845;DHT22;4961;50.782;6.080;2022-09-13T14:21:21;24.40;99.90
9845;DHT22;4961;50.782;6.080;2022-09-13T14:23:53;24.40;99.90
9845;DHT22;4961;50.782;6.080;2022-09-13T14:26:34;24.30;99.90
9845;DHT22;4961;50.782;6.080;2022-09-13T14:29:07;24.30;99.90
9845;DHT22;4961;50.782;6.080;2022-09-13T14:31:37;24.20;99.90
9845;DHT22;4961;50.782;6.080;2022-09-13T14:34:05;24.20;99.90
9845;DHT22;4961;50.782;6.080;2022-09-13T14:36:51;24.10;99.90
9845;DHT22;4961;50.782;6.080;2022-09-13T14:39:20;24.10;99.90
9845;DHT22;4961;50.782;6.080;2022-09-13T14:41:57;24.10;99.90
9845;DHT22;4961;50.782;6.080;2022-09-13T14:44:27;24.00;99.90
9845;DHT22;4961;50.782;6.080;2022-09-13T14:47:05;24.00;99.90
9845;DHT22;4961;50.782;6.080;2022-09-13T14:49:37;23.90;99.90
9845;DHT22;4961;50.782;6.080;2022-09-13T14:52:09;23.90;99.90
9845;DHT22;4961;50.782;6.080;2022-09-13T14:54:43;23.90;99.90
9845;DHT22;4961;50.782;6.080;2022-09-13T14:57:21;23.90;99.90
9845;DHT22;4961;50.782;6.080;2022-09-13T14:59:52;23.90;99.90
9845;DHT22;4961;50.782;6.080;2022-09-13T15:02:26;23.90;99.90
9845;DHT22;4961;50.782;6.080;2022-09-13T15:04:58;23.80;99.90
9845;DHT22;4961;50.782;6.080;2022-09-13T15:07:29;23.80;99.90
9845;DHT22;4961;50.782;6.080;2022-09-13T15:10:06;23.80;99.90
9845;DHT22;4961;50.782;6.080;2022-09-13T15:12:35;23.80;99.90
9845;DHT22;4961;50.782;6.080;2022-09-13T15:15:33;23.80;99.90
9845;DHT22;4961;50.782;6.080;2022-09-13T15:18:05;23.70;99.90
9845;DHT22;4961;50.782;6.080;2022-09-13T15:20:51;23.60;99.90
9845;DHT22;4961;50.782;6.080;2022-09-13T15:23:23;23.50;99.90
9845;DHT22;4961;50.782;6.080;2022-09-13T15:25:56;23.40;99.90
9845;DHT22;4961;50.782;6.080;2022-09-13T15:28:26;23.40;99.90
9845;DHT22;4961;50.782;6.080;2022-09-13T15:30:57;23.30;99.90
9845;DHT22;4961;50.782;6.080;2022-09-13T15:33:29;23.30;99.90
9845;DHT22;4961;50.782;6.080;2022-09-13T15:36:26;23.20;99.90
9845;DHT22;4961;50.782;6.080;2022-09-13T15:39:02;23.10;99.90
9845;DHT22;4961;50.782;6.080;2022-09-13T15:41:32;23.00;99.90
9845;DHT22;4961;50.782;6.080;2022-09-13T15:44:04;22.90;99.90
9845;DHT22;4961;50.782;6.080;2022-09-13T15:46:42;22.80;99.90
9845;DHT22;4961;50.782;6.080;2022-09-13T15:49:16;22.80;99.90
9845;DHT22;4961;50.782;6.080;2022-09-13T15:51:44;22.60;99.90
9845;DHT22;4961;50.782;6.080;2022-09-13T15:54:14;22.60;99.90
9845;DHT22;4961;50.782;6.080;2022-09-13T15:56:44;22.50;99.90
9845;DHT22;4961;50.782;6.080;2022-09-13T15:59:13;22.40;99.90
9845;DHT22;4961;50.782;6.080;2022-09-13T16:01:42;22.30;99.90
9845;DHT22;4961;50.782;6.080;2022-09-13T16:04:13;22.20;99.90
9845;DHT22;4961;50.782;6.080;2022-09-13T16:06:41;22.10;99.90
9845;DHT22;4961;50.782;6.080;2022-09-13T16:09:15;22.00;99.90
9845;DHT22;4961;50.782;6.080;2022-09-13T16:11:45;21.90;99.90
9845;DHT22;4961;50.782;6.080;2022-09-13T16:14:14;21.80;99.90
9845;DHT22;4961;50.782;6.080;2022-09-13T16:16:43;21.70;99.90
9845;DHT22;4961;50.782;6.080;2022-09-13T16:19:15;21.70;99.90
9845;DHT22;4961;50.782;6.080;2022-09-13T16:21:44;21.60;99.90
9845;DHT22;4961;50.782;6.080;2022-09-13T16:24:13;21.60;99.90
9845;DHT22;4961;50.782;6.080;2022-09-13T16:26:41;21.50;99.90
9845;DHT22;4961;50.782;6.080;2022-09-13T16:29:10;21.40;99.90
9845;DHT22;4961;50.782;6.080;2022-09-13T16:31:39;21.30;99.90
9845;DHT22;4961;50.782;6.080;2022-09-13T16:34:07;21.20;99.90
9845;DHT22;4961;50.782;6.080;2022-09-13T16:36:37;21.10;99.90
9845;DHT22;4961;50.782;6.080;2022-09-13T16:39:05;21.10;99.90
9845;DHT22;4961;50.782;6.080;2022-09-13T16:41:34;21.10;99.90
9845;DHT22;4961;50.782;6.080;2022-09-13T16:44:02;21.00;99.90
9845;DHT22;4961;50.782;6.080;2022-09-13T16:46:31;20.90;99.90
9845;DHT22;4961;50.782;6.080;2022-09-13T16:49:00;20.90;99.90
9845;DHT22;4961;50.782;6.080;2022-09-13T16:51:28;20.90;99.90
9845;DHT22;4961;50.782;6.080;2022-09-13T16:53:58;20.80;99.90
9845;DHT22;4961;50.782;6.080;2022-09-13T16:56:26;20.70;99.90
9845;DHT22;4961;50.782;6.080;2022-09-13T16:58:56;20.60;99.90
9845;DHT22;4961;50.782;6.080;2022-09-13T17:01:26;20.60;99.90
9845;DHT22;4961;50.782;6.080;2022-09-13T17:03:55;20.60;99.90